Terminal Aerodrome Forecast
Issued by NWS

Home | Current Version | Previous Version | Text Only | Print | Product List | Glossary On
Versions: 1 2 3 4 5 6 7 8 9 10 11 12 13
810
FTUS43 KPAH 210520
TAFCGI
TAF
KCGI 210520Z 2106/2206 24006KT P6SM VCSH SCT040 BKN100
     FM210800 32008KT P6SM FEW020 SCT040
     FM211400 29008KT P6SM FEW040=

USA.gov is the U.S. government's official web portal to all federal, state and local government web resources and services.